sensor_id;sensor_type;location;lat;lon;timestamp;P1;durP1;ratioP1;P2;durP2;ratioP2
21036;SDS011;10677;50.942;4.028;2022-07-19T00:00:45;7.65;;;3.10;;
21036;SDS011;10677;50.942;4.028;2022-07-19T00:03:15;6.57;;;2.60;;
21036;SDS011;10677;50.942;4.028;2022-07-19T00:05:45;6.95;;;2.67;;
21036;SDS011;10677;50.942;4.028;2022-07-19T00:08:10;9.25;;;3.40;;
21036;SDS011;10677;50.942;4.028;2022-07-19T00:10:36;6.18;;;3.08;;
21036;SDS011;10677;50.942;4.028;2022-07-19T00:13:02;5.32;;;2.83;;
21036;SDS011;10677;50.942;4.028;2022-07-19T00:15:28;12.15;;;3.20;;
21036;SDS011;10677;50.942;4.028;2022-07-19T00:17:53;5.00;;;2.72;;
21036;SDS011;10677;50.942;4.028;2022-07-19T00:20:20;4.90;;;3.28;;
21036;SDS011;10677;50.942;4.028;2022-07-19T00:22:47;8.02;;;3.03;;
21036;SDS011;10677;50.942;4.028;2022-07-19T00:25:13;6.85;;;2.72;;
21036;SDS011;10677;50.942;4.028;2022-07-19T00:27:39;5.20;;;3.10;;
21036;SDS011;10677;50.942;4.028;2022-07-19T00:30:07;7.93;;;3.17;;
21036;SDS011;10677;50.942;4.028;2022-07-19T00:32:33;4.18;;;2.70;;
21036;SDS011;10677;50.942;4.028;2022-07-19T00:34:59;6.88;;;3.13;;
21036;SDS011;10677;50.942;4.028;2022-07-19T00:37:24;6.55;;;2.65;;
21036;SDS011;10677;50.942;4.028;2022-07-19T00:39:50;4.57;;;2.90;;
21036;SDS011;10677;50.942;4.028;2022-07-19T00:42:17;5.88;;;3.00;;
21036;SDS011;10677;50.942;4.028;2022-07-19T00:44:42;10.88;;;3.47;;
21036;SDS011;10677;50.942;4.028;2022-07-19T00:47:08;5.60;;;2.90;;
21036;SDS011;10677;50.942;4.028;2022-07-19T00:49:34;9.05;;;3.10;;
21036;SDS011;10677;50.942;4.028;2022-07-19T00:51:59;8.95;;;3.38;;
21036;SDS011;10677;50.942;4.028;2022-07-19T00:54:28;7.88;;;2.92;;
21036;SDS011;10677;50.942;4.028;2022-07-19T00:56:55;9.60;;;3.30;;
21036;SDS011;10677;50.942;4.028;2022-07-19T00:59:23;6.85;;;3.08;;
21036;SDS011;10677;50.942;4.028;2022-07-19T01:01:51;6.63;;;3.20;;
21036;SDS011;10677;50.942;4.028;2022-07-19T01:04:17;7.78;;;3.10;;
21036;SDS011;10677;50.942;4.028;2022-07-19T01:06:45;11.93;;;3.28;;
21036;SDS011;10677;50.942;4.028;2022-07-19T01:09:10;6.18;;;2.97;;
21036;SDS011;10677;50.942;4.028;2022-07-19T01:11:38;9.38;;;3.20;;
21036;SDS011;10677;50.942;4.028;2022-07-19T01:14:04;5.95;;;2.90;;
21036;SDS011;10677;50.942;4.028;2022-07-19T01:16:30;6.20;;;2.97;;
21036;SDS011;10677;50.942;4.028;2022-07-19T01:18:55;6.80;;;3.25;;
21036;SDS011;10677;50.942;4.028;2022-07-19T01:21:23;5.68;;;3.00;;
21036;SDS011;10677;50.942;4.028;2022-07-19T01:23:50;8.10;;;2.70;;
21036;SDS011;10677;50.942;4.028;2022-07-19T01:26:16;5.72;;;2.97;;
21036;SDS011;10677;50.942;4.028;2022-07-19T01:28:43;8.45;;;3.13;;
21036;SDS011;10677;50.942;4.028;2022-07-19T01:31:09;8.38;;;2.83;;
21036;SDS011;10677;50.942;4.028;2022-07-19T01:33:39;8.35;;;2.75;;
21036;SDS011;10677;50.942;4.028;2022-07-19T01:36:08;7.10;;;2.90;;
21036;SDS011;10677;50.942;4.028;2022-07-19T01:38:34;7.38;;;2.92;;
21036;SDS011;10677;50.942;4.028;2022-07-19T01:41:01;7.45;;;2.90;;
21036;SDS011;10677;50.942;4.028;2022-07-19T01:43:26;6.50;;;3.22;;
21036;SDS011;10677;50.942;4.028;2022-07-19T01:45:52;9.65;;;3.15;;
21036;SDS011;10677;50.942;4.028;2022-07-19T01:48:21;6.13;;;3.08;;
21036;SDS011;10677;50.942;4.028;2022-07-19T01:50:46;5.78;;;3.17;;
21036;SDS011;10677;50.942;4.028;2022-07-19T01:53:12;5.97;;;2.88;;
21036;SDS011;10677;50.942;4.028;2022-07-19T01:55:38;6.13;;;3.00;;
21036;SDS011;10677;50.942;4.028;2022-07-19T01:58:04;6.15;;;3.08;;
21036;SDS011;10677;50.942;4.028;2022-07-19T02:00:29;9.35;;;3.20;;
21036;SDS011;10677;50.942;4.028;2022-07-19T02:02:55;8.18;;;3.00;;
21036;SDS011;10677;50.942;4.028;2022-07-19T02:05:21;5.53;;;2.90;;
21036;SDS011;10677;50.942;4.028;2022-07-19T02:07:46;32.67;;;3.50;;
21036;SDS011;10677;50.942;4.028;2022-07-19T02:10:12;6.82;;;2.92;;
21036;SDS011;10677;50.942;4.028;2022-07-19T02:12:38;6.53;;;2.85;;
21036;SDS011;10677;50.942;4.028;2022-07-19T02:15:04;5.60;;;2.75;;
21036;SDS011;10677;50.942;4.028;2022-07-19T02:17:30;7.03;;;3.35;;
21036;SDS011;10677;50.942;4.028;2022-07-19T02:19:56;5.75;;;2.75;;
21036;SDS011;10677;50.942;4.028;2022-07-19T02:22:22;6.38;;;3.13;;
21036;SDS011;10677;50.942;4.028;2022-07-19T02:24:47;10.10;;;3.22;;
21036;SDS011;10677;50.942;4.028;2022-07-19T02:27:13;6.75;;;3.08;;
21036;SDS011;10677;50.942;4.028;2022-07-19T02:29:39;8.35;;;3.50;;
21036;SDS011;10677;50.942;4.028;2022-07-19T02:32:04;5.05;;;2.90;;
21036;SDS011;10677;50.942;4.028;2022-07-19T02:34:31;7.28;;;3.67;;
21036;SDS011;10677;50.942;4.028;2022-07-19T02:36:57;5.43;;;3.10;;
21036;SDS011;10677;50.942;4.028;2022-07-19T02:39:23;8.10;;;3.10;;
21036;SDS011;10677;50.942;4.028;2022-07-19T02:41:48;7.70;;;3.13;;
21036;SDS011;10677;50.942;4.028;2022-07-19T02:44:14;7.38;;;3.03;;
21036;SDS011;10677;50.942;4.028;2022-07-19T02:46:40;6.22;;;3.22;;
21036;SDS011;10677;50.942;4.028;2022-07-19T02:49:05;6.43;;;3.05;;
21036;SDS011;10677;50.942;4.028;2022-07-19T02:51:31;6.68;;;2.92;;
21036;SDS011;10677;50.942;4.028;2022-07-19T02:53:56;6.68;;;3.15;;
21036;SDS011;10677;50.942;4.028;2022-07-19T02:56:22;7.30;;;3.55;;
21036;SDS011;10677;50.942;4.028;2022-07-19T02:58:47;9.48;;;3.60;;
21036;SDS011;10677;50.942;4.028;2022-07-19T03:01:13;8.73;;;3.60;;
21036;SDS011;10677;50.942;4.028;2022-07-19T03:03:39;8.95;;;3.35;;
21036;SDS011;10677;50.942;4.028;2022-07-19T03:06:12;7.00;;;3.00;;
21036;SDS011;10677;50.942;4.028;2022-07-19T03:08:39;8.18;;;3.42;;
21036;SDS011;10677;50.942;4.028;2022-07-19T03:11:05;6.40;;;3.05;;
21036;SDS011;10677;50.942;4.028;2022-07-19T03:13:31;6.35;;;2.90;;
21036;SDS011;10677;50.942;4.028;2022-07-19T03:15:56;4.60;;;3.08;;
21036;SDS011;10677;50.942;4.028;2022-07-19T03:18:22;4.80;;;2.80;;
21036;SDS011;10677;50.942;4.028;2022-07-19T03:20:48;11.02;;;3.00;;
21036;SDS011;10677;50.942;4.028;2022-07-19T03:23:13;7.75;;;3.08;;
21036;SDS011;10677;50.942;4.028;2022-07-19T03:25:39;8.15;;;3.00;;
21036;SDS011;10677;50.942;4.028;2022-07-19T03:28:04;5.45;;;3.22;;
21036;SDS011;10677;50.942;4.028;2022-07-19T03:30:30;6.30;;;3.38;;
21036;SDS011;10677;50.942;4.028;2022-07-19T03:32:57;7.60;;;3.40;;
21036;SDS011;10677;50.942;4.028;2022-07-19T03:35:23;7.63;;;3.03;;
21036;SDS011;10677;50.942;4.028;2022-07-19T03:37:49;6.53;;;3.10;;
21036;SDS011;10677;50.942;4.028;2022-07-19T03:40:14;7.75;;;3.40;;
21036;SDS011;10677;50.942;4.028;2022-07-19T03:42:40;7.57;;;3.25;;
21036;SDS011;10677;50.942;4.028;2022-07-19T03:45:06;6.63;;;3.42;;
21036;SDS011;10677;50.942;4.028;2022-07-19T03:47:32;6.68;;;3.85;;
21036;SDS011;10677;50.942;4.028;2022-07-19T03:49:58;7.60;;;3.47;;
21036;SDS011;10677;50.942;4.028;2022-07-19T03:52:23;5.47;;;3.25;;
21036;SDS011;10677;50.942;4.028;2022-07-19T03:54:49;10.48;;;3.20;;
21036;SDS011;10677;50.942;4.028;2022-07-19T03:57:15;6.55;;;3.60;;
21036;SDS011;10677;50.942;4.028;2022-07-19T03:59:41;7.72;;;3.05;;
21036;SDS011;10677;50.942;4.028;2022-07-19T04:02:07;8.15;;;3.15;;
21036;SDS011;10677;50.942;4.028;2022-07-19T04:04:32;6.57;;;3.53;;
21036;SDS011;10677;50.942;4.028;2022-07-19T04:06:58;6.90;;;3.55;;
21036;SDS011;10677;50.942;4.028;2022-07-19T04:09:24;9.25;;;3.63;;
21036;SDS011;10677;50.942;4.028;2022-07-19T04:11:49;7.10;;;3.25;;
21036;SDS011;10677;50.942;4.028;2022-07-19T04:14:15;8.05;;;3.17;;
21036;SDS011;10677;50.942;4.028;2022-07-19T04:16:41;7.28;;;3.45;;
21036;SDS011;10677;50.942;4.028;2022-07-19T04:19:06;8.35;;;3.30;;
21036;SDS011;10677;50.942;4.028;2022-07-19T04:21:32;8.07;;;3.75;;
21036;SDS011;10677;50.942;4.028;2022-07-19T04:23:57;6.28;;;3.72;;
21036;SDS011;10677;50.942;4.028;2022-07-19T04:26:23;6.13;;;3.15;;
21036;SDS011;10677;50.942;4.028;2022-07-19T04:28:49;5.95;;;3.40;;
21036;SDS011;10677;50.942;4.028;2022-07-19T04:31:14;7.60;;;3.78;;
21036;SDS011;10677;50.942;4.028;2022-07-19T04:33:41;11.27;;;3.90;;
21036;SDS011;10677;50.942;4.028;2022-07-19T04:36:07;7.65;;;3.42;;
21036;SDS011;10677;50.942;4.028;2022-07-19T04:38:33;10.25;;;3.63;;
21036;SDS011;10677;50.942;4.028;2022-07-19T04:40:59;6.88;;;3.42;;
21036;SDS011;10677;50.942;4.028;2022-07-19T04:43:24;5.50;;;2.95;;
21036;SDS011;10677;50.942;4.028;2022-07-19T04:45:50;7.65;;;3.25;;
21036;SDS011;10677;50.942;4.028;2022-07-19T04:48:16;7.00;;;3.40;;
21036;SDS011;10677;50.942;4.028;2022-07-19T04:50:41;14.23;;;4.55;;
21036;SDS011;10677;50.942;4.028;2022-07-19T04:53:07;11.75;;;3.63;;
21036;SDS011;10677;50.942;4.028;2022-07-19T04:55:33;7.20;;;3.70;;
21036;SDS011;10677;50.942;4.028;2022-07-19T04:58:01;7.63;;;3.38;;
21036;SDS011;10677;50.942;4.028;2022-07-19T05:00:26;8.18;;;3.90;;
21036;SDS011;10677;50.942;4.028;2022-07-19T05:02:53;7.63;;;3.75;;
21036;SDS011;10677;50.942;4.028;2022-07-19T05:05:19;8.23;;;4.05;;
21036;SDS011;10677;50.942;4.028;2022-07-19T05:07:45;9.82;;;3.42;;
21036;SDS011;10677;50.942;4.028;2022-07-19T05:10:11;9.45;;;3.33;;
21036;SDS011;10677;50.942;4.028;2022-07-19T05:12:37;9.50;;;3.35;;
21036;SDS011;10677;50.942;4.028;2022-07-19T05:15:04;10.25;;;3.42;;
21036;SDS011;10677;50.942;4.028;2022-07-19T05:17:30;14.38;;;3.70;;
21036;SDS011;10677;50.942;4.028;2022-07-19T05:19:56;11.35;;;3.83;;
21036;SDS011;10677;50.942;4.028;2022-07-19T05:22:21;7.70;;;3.67;;
21036;SDS011;10677;50.942;4.028;2022-07-19T05:24:49;11.70;;;3.50;;
21036;SDS011;10677;50.942;4.028;2022-07-19T05:27:15;8.57;;;3.50;;
21036;SDS011;10677;50.942;4.028;2022-07-19T05:29:40;9.98;;;3.50;;
21036;SDS011;10677;50.942;4.028;2022-07-19T05:32:06;8.02;;;3.15;;
21036;SDS011;10677;50.942;4.028;2022-07-19T05:34:32;5.88;;;2.83;;
21036;SDS011;10677;50.942;4.028;2022-07-19T05:36:57;10.43;;;3.05;;
21036;SDS011;10677;50.942;4.028;2022-07-19T05:39:23;6.53;;;3.10;;
21036;SDS011;10677;50.942;4.028;2022-07-19T05:41:48;9.35;;;3.25;;
21036;SDS011;10677;50.942;4.028;2022-07-19T05:44:14;10.45;;;3.20;;
21036;SDS011;10677;50.942;4.028;2022-07-19T05:46:40;10.93;;;3.35;;
21036;SDS011;10677;50.942;4.028;2022-07-19T05:49:08;10.75;;;3.40;;
21036;SDS011;10677;50.942;4.028;2022-07-19T05:51:34;10.93;;;3.28;;
21036;SDS011;10677;50.942;4.028;2022-07-19T05:54:00;11.63;;;2.95;;
21036;SDS011;10677;50.942;4.028;2022-07-19T05:56:27;11.27;;;3.05;;
21036;SDS011;10677;50.942;4.028;2022-07-19T05:58:53;6.22;;;2.90;;
21036;SDS011;10677;50.942;4.028;2022-07-19T06:01:19;6.43;;;3.05;;
21036;SDS011;10677;50.942;4.028;2022-07-19T06:03:48;7.22;;;2.63;;
21036;SDS011;10677;50.942;4.028;2022-07-19T06:06:17;6.82;;;2.65;;
21036;SDS011;10677;50.942;4.028;2022-07-19T06:08:43;11.75;;;2.65;;
21036;SDS011;10677;50.942;4.028;2022-07-19T06:11:09;9.85;;;2.85;;
21036;SDS011;10677;50.942;4.028;2022-07-19T06:13:35;6.57;;;2.45;;
21036;SDS011;10677;50.942;4.028;2022-07-19T06:16:01;7.28;;;2.47;;
21036;SDS011;10677;50.942;4.028;2022-07-19T06:18:27;9.68;;;2.50;;
21036;SDS011;10677;50.942;4.028;2022-07-19T06:20:59;7.00;;;2.30;;
21036;SDS011;10677;50.942;4.028;2022-07-19T06:23:26;8.13;;;2.70;;
21036;SDS011;10677;50.942;4.028;2022-07-19T06:25:51;7.70;;;2.70;;
21036;SDS011;10677;50.942;4.028;2022-07-19T06:28:17;5.70;;;2.20;;
21036;SDS011;10677;50.942;4.028;2022-07-19T06:30:43;10.00;;;2.80;;
21036;SDS011;10677;50.942;4.028;2022-07-19T06:33:08;11.48;;;2.75;;
21036;SDS011;10677;50.942;4.028;2022-07-19T06:35:34;6.05;;;2.17;;
21036;SDS011;10677;50.942;4.028;2022-07-19T06:38:00;8.80;;;2.08;;
21036;SDS011;10677;50.942;4.028;2022-07-19T06:40:25;8.35;;;2.40;;
21036;SDS011;10677;50.942;4.028;2022-07-19T06:42:51;6.85;;;2.40;;
21036;SDS011;10677;50.942;4.028;2022-07-19T06:45:17;4.53;;;2.15;;
21036;SDS011;10677;50.942;4.028;2022-07-19T06:47:43;6.30;;;2.53;;
21036;SDS011;10677;50.942;4.028;2022-07-19T06:50:08;5.75;;;2.03;;
21036;SDS011;10677;50.942;4.028;2022-07-19T06:52:34;5.65;;;2.45;;
21036;SDS011;10677;50.942;4.028;2022-07-19T06:54:59;5.80;;;2.33;;
21036;SDS011;10677;50.942;4.028;2022-07-19T06:57:25;3.83;;;2.20;;
21036;SDS011;10677;50.942;4.028;2022-07-19T06:59:51;5.53;;;2.20;;
21036;SDS011;10677;50.942;4.028;2022-07-19T07:02:16;6.50;;;2.17;;
21036;SDS011;10677;50.942;4.028;2022-07-19T07:04:42;7.22;;;2.08;;
21036;SDS011;10677;50.942;4.028;2022-07-19T07:07:07;5.00;;;2.40;;
21036;SDS011;10677;50.942;4.028;2022-07-19T07:09:33;5.50;;;2.13;;
21036;SDS011;10677;50.942;4.028;2022-07-19T07:11:59;8.23;;;2.40;;
21036;SDS011;10677;50.942;4.028;2022-07-19T07:14:24;9.88;;;2.40;;
21036;SDS011;10677;50.942;4.028;2022-07-19T07:16:50;6.03;;;2.28;;
21036;SDS011;10677;50.942;4.028;2022-07-19T07:19:15;5.50;;;2.35;;
21036;SDS011;10677;50.942;4.028;2022-07-19T07:21:41;10.30;;;2.60;;
21036;SDS011;10677;50.942;4.028;2022-07-19T07:24:07;6.35;;;2.60;;
21036;SDS011;10677;50.942;4.028;2022-07-19T07:26:32;5.30;;;2.00;;
21036;SDS011;10677;50.942;4.028;2022-07-19T07:28:58;6.32;;;2.50;;
21036;SDS011;10677;50.942;4.028;2022-07-19T07:31:24;6.95;;;2.28;;
21036;SDS011;10677;50.942;4.028;2022-07-19T07:33:50;7.68;;;2.38;;
21036;SDS011;10677;50.942;4.028;2022-07-19T07:36:15;5.47;;;2.25;;
21036;SDS011;10677;50.942;4.028;2022-07-19T07:38:41;7.32;;;2.22;;
21036;SDS011;10677;50.942;4.028;2022-07-19T07:41:07;6.88;;;2.45;;
21036;SDS011;10677;50.942;4.028;2022-07-19T07:43:33;5.75;;;2.30;;
21036;SDS011;10677;50.942;4.028;2022-07-19T07:46:00;6.53;;;2.10;;
21036;SDS011;10677;50.942;4.028;2022-07-19T07:48:26;9.32;;;2.55;;
21036;SDS011;10677;50.942;4.028;2022-07-19T07:50:51;7.63;;;2.72;;
21036;SDS011;10677;50.942;4.028;2022-07-19T07:53:17;6.35;;;2.40;;
21036;SDS011;10677;50.942;4.028;2022-07-19T07:55:43;7.28;;;2.60;;
21036;SDS011;10677;50.942;4.028;2022-07-19T07:58:09;8.90;;;2.47;;
21036;SDS011;10677;50.942;4.028;2022-07-19T08:00:35;6.57;;;2.50;;
21036;SDS011;10677;50.942;4.028;2022-07-19T08:03:02;10.30;;;2.35;;
21036;SDS011;10677;50.942;4.028;2022-07-19T08:05:28;7.95;;;3.03;;
21036;SDS011;10677;50.942;4.028;2022-07-19T08:07:54;5.43;;;2.70;;
21036;SDS011;10677;50.942;4.028;2022-07-19T08:10:20;4.82;;;2.40;;
21036;SDS011;10677;50.942;4.028;2022-07-19T08:12:47;7.28;;;2.65;;
21036;SDS011;10677;50.942;4.028;2022-07-19T08:15:13;11.95;;;3.13;;
21036;SDS011;10677;50.942;4.028;2022-07-19T08:17:39;4.30;;;2.08;;
21036;SDS011;10677;50.942;4.028;2022-07-19T08:20:05;5.72;;;2.50;;
21036;SDS011;10677;50.942;4.028;2022-07-19T08:22:31;9.88;;;2.72;;
21036;SDS011;10677;50.942;4.028;2022-07-19T08:24:56;6.78;;;2.42;;
21036;SDS011;10677;50.942;4.028;2022-07-19T08:27:22;7.68;;;2.78;;
21036;SDS011;10677;50.942;4.028;2022-07-19T08:29:48;7.72;;;2.10;;
21036;SDS011;10677;50.942;4.028;2022-07-19T08:32:14;6.47;;;2.35;;
21036;SDS011;10677;50.942;4.028;2022-07-19T08:34:39;5.90;;;2.67;;
21036;SDS011;10677;50.942;4.028;2022-07-19T08:37:05;7.32;;;2.78;;
21036;SDS011;10677;50.942;4.028;2022-07-19T08:39:31;7.72;;;2.97;;
21036;SDS011;10677;50.942;4.028;2022-07-19T08:41:56;5.82;;;2.33;;
21036;SDS011;10677;50.942;4.028;2022-07-19T08:44:22;7.78;;;2.78;;
21036;SDS011;10677;50.942;4.028;2022-07-19T08:46:48;7.85;;;2.20;;
21036;SDS011;10677;50.942;4.028;2022-07-19T08:49:14;6.55;;;2.40;;
21036;SDS011;10677;50.942;4.028;2022-07-19T08:51:41;7.80;;;2.45;;
21036;SDS011;10677;50.942;4.028;2022-07-19T08:54:07;6.63;;;2.72;;
21036;SDS011;10677;50.942;4.028;2022-07-19T08:56:33;9.52;;;2.72;;
21036;SDS011;10677;50.942;4.028;2022-07-19T08:59:18;6.85;;;2.55;;
21036;SDS011;10677;50.942;4.028;2022-07-19T09:01:43;6.05;;;2.35;;
21036;SDS011;10677;50.942;4.028;2022-07-19T09:04:13;7.63;;;2.60;;
21036;SDS011;10677;50.942;4.028;2022-07-19T09:06:45;5.60;;;2.60;;
21036;SDS011;10677;50.942;4.028;2022-07-19T09:09:17;9.35;;;3.20;;
21036;SDS011;10677;50.942;4.028;2022-07-19T09:11:46;8.35;;;2.70;;
21036;SDS011;10677;50.942;4.028;2022-07-19T09:14:20;8.90;;;2.42;;
21036;SDS011;10677;50.942;4.028;2022-07-19T09:19:27;8.00;;;2.58;;
21036;SDS011;10677;50.942;4.028;2022-07-19T09:21:55;7.93;;;2.70;;
21036;SDS011;10677;50.942;4.028;2022-07-19T09:24:24;9.35;;;3.05;;
21036;SDS011;10677;50.942;4.028;2022-07-19T09:26:58;8.70;;;2.58;;
21036;SDS011;10677;50.942;4.028;2022-07-19T09:29:25;7.20;;;2.80;;
21036;SDS011;10677;50.942;4.028;2022-07-19T09:34:32;5.38;;;2.90;;
21036;SDS011;10677;50.942;4.028;2022-07-19T09:37:13;7.72;;;2.80;;
21036;SDS011;10677;50.942;4.028;2022-07-19T09:39:41;8.48;;;2.65;;
21036;SDS011;10677;50.942;4.028;2022-07-19T09:42:14;7.97;;;2.63;;
21036;SDS011;10677;50.942;4.028;2022-07-19T09:44:42;7.53;;;2.70;;
21036;SDS011;10677;50.942;4.028;2022-07-19T09:47:08;5.60;;;2.55;;
21036;SDS011;10677;50.942;4.028;2022-07-19T09:49:35;7.95;;;3.00;;
21036;SDS011;10677;50.942;4.028;2022-07-19T09:52:00;7.28;;;3.00;;
21036;SDS011;10677;50.942;4.028;2022-07-19T09:54:28;9.32;;;2.60;;
21036;SDS011;10677;50.942;4.028;2022-07-19T09:56:56;9.40;;;3.00;;
21036;SDS011;10677;50.942;4.028;2022-07-19T09:59:23;6.93;;;2.70;;
21036;SDS011;10677;50.942;4.028;2022-07-19T10:01:51;10.02;;;2.80;;
21036;SDS011;10677;50.942;4.028;2022-07-19T10:04:19;6.88;;;2.72;;
21036;SDS011;10677;50.942;4.028;2022-07-19T10:06:47;8.75;;;2.90;;
21036;SDS011;10677;50.942;4.028;2022-07-19T10:09:15;6.85;;;2.72;;
21036;SDS011;10677;50.942;4.028;2022-07-19T10:11:42;9.20;;;2.38;;
21036;SDS011;10677;50.942;4.028;2022-07-19T10:14:08;6.63;;;2.40;;
21036;SDS011;10677;50.942;4.028;2022-07-19T10:19:45;8.32;;;2.67;;
21036;SDS011;10677;50.942;4.028;2022-07-19T10:22:17;9.88;;;2.30;;
21036;SDS011;10677;50.942;4.028;2022-07-19T10:27:14;8.35;;;2.80;;
21036;SDS011;10677;50.942;4.028;2022-07-19T10:29:41;6.97;;;2.60;;
21036;SDS011;10677;50.942;4.028;2022-07-19T10:32:08;5.57;;;2.22;;
21036;SDS011;10677;50.942;4.028;2022-07-19T10:34:36;6.68;;;2.00;;
21036;SDS011;10677;50.942;4.028;2022-07-19T10:37:02;6.35;;;2.55;;
21036;SDS011;10677;50.942;4.028;2022-07-19T10:44:29;9.40;;;2.28;;
21036;SDS011;10677;50.942;4.028;2022-07-19T10:46:55;5.70;;;2.00;;
21036;SDS011;10677;50.942;4.028;2022-07-19T10:57:40;7.18;;;2.33;;
21036;SDS011;10677;50.942;4.028;2022-07-19T11:00:29;8.55;;;2.55;;
21036;SDS011;10677;50.942;4.028;2022-07-19T11:05:45;5.03;;;2.30;;
21036;SDS011;10677;50.942;4.028;2022-07-19T11:08:15;10.38;;;2.05;;
21036;SDS011;10677;50.942;4.028;2022-07-19T11:10:41;6.90;;;2.13;;
21036;SDS011;10677;50.942;4.028;2022-07-19T11:13:07;6.40;;;2.38;;
21036;SDS011;10677;50.942;4.028;2022-07-19T11:15:33;8.23;;;1.90;;
21036;SDS011;10677;50.942;4.028;2022-07-19T11:18:00;7.60;;;2.28;;
21036;SDS011;10677;50.942;4.028;2022-07-19T11:20:28;6.32;;;1.95;;
21036;SDS011;10677;50.942;4.028;2022-07-19T11:22:58;5.78;;;2.00;;
21036;SDS011;10677;50.942;4.028;2022-07-19T11:27:53;6.28;;;2.10;;
21036;SDS011;10677;50.942;4.028;2022-07-19T11:30:20;8.57;;;2.28;;
21036;SDS011;10677;50.942;4.028;2022-07-19T11:32:51;5.55;;;2.35;;
21036;SDS011;10677;50.942;4.028;2022-07-19T11:35:22;6.22;;;2.35;;
21036;SDS011;10677;50.942;4.028;2022-07-19T11:37:48;9.13;;;2.20;;
21036;SDS011;10677;50.942;4.028;2022-07-19T11:40:16;4.00;;;1.83;;
21036;SDS011;10677;50.942;4.028;2022-07-19T11:42:43;7.47;;;2.53;;
21036;SDS011;10677;50.942;4.028;2022-07-19T11:45:20;8.05;;;2.50;;
21036;SDS011;10677;50.942;4.028;2022-07-19T11:47:49;5.93;;;2.55;;
21036;SDS011;10677;50.942;4.028;2022-07-19T11:50:17;6.45;;;2.20;;
21036;SDS011;10677;50.942;4.028;2022-07-19T11:52:47;6.53;;;2.10;;
21036;SDS011;10677;50.942;4.028;2022-07-19T11:55:22;5.38;;;2.25;;
21036;SDS011;10677;50.942;4.028;2022-07-19T11:57:53;4.85;;;2.20;;
21036;SDS011;10677;50.942;4.028;2022-07-19T12:00:21;11.13;;;2.67;;
21036;SDS011;10677;50.942;4.028;2022-07-19T12:02:58;9.15;;;2.72;;
21036;SDS011;10677;50.942;4.028;2022-07-19T12:05:35;4.68;;;2.45;;
21036;SDS011;10677;50.942;4.028;2022-07-19T12:08:11;10.02;;;2.70;;
21036;SDS011;10677;50.942;4.028;2022-07-19T12:10:38;6.88;;;2.42;;
21036;SDS011;10677;50.942;4.028;2022-07-19T12:13:09;10.27;;;2.70;;
21036;SDS011;10677;50.942;4.028;2022-07-19T12:18:17;9.30;;;2.72;;
21036;SDS011;10677;50.942;4.028;2022-07-19T12:20:45;6.30;;;2.25;;
21036;SDS011;10677;50.942;4.028;2022-07-19T12:23:30;5.00;;;2.63;;
21036;SDS011;10677;50.942;4.028;2022-07-19T12:26:02;6.45;;;2.55;;
21036;SDS011;10677;50.942;4.028;2022-07-19T12:28:29;6.85;;;2.33;;
21036;SDS011;10677;50.942;4.028;2022-07-19T12:31:02;8.45;;;2.42;;
21036;SDS011;10677;50.942;4.028;2022-07-19T12:33:28;7.25;;;2.83;;
21036;SDS011;10677;50.942;4.028;2022-07-19T12:35:54;7.50;;;3.03;;
21036;SDS011;10677;50.942;4.028;2022-07-19T12:38:26;8.27;;;2.97;;
21036;SDS011;10677;50.942;4.028;2022-07-19T12:41:03;7.07;;;2.60;;
21036;SDS011;10677;50.942;4.028;2022-07-19T12:43:33;5.20;;;2.53;;
21036;SDS011;10677;50.942;4.028;2022-07-19T12:45:59;5.95;;;2.60;;
21036;SDS011;10677;50.942;4.028;2022-07-19T12:48:28;6.53;;;2.85;;
21036;SDS011;10677;50.942;4.028;2022-07-19T12:50:54;7.47;;;2.83;;
21036;SDS011;10677;50.942;4.028;2022-07-19T12:53:20;6.82;;;2.80;;
21036;SDS011;10677;50.942;4.028;2022-07-19T12:55:47;10.85;;;3.33;;
21036;SDS011;10677;50.942;4.028;2022-07-19T12:58:15;9.70;;;2.70;;
21036;SDS011;10677;50.942;4.028;2022-07-19T13:01:00;9.57;;;2.53;;
21036;SDS011;10677;50.942;4.028;2022-07-19T13:03:26;7.80;;;2.50;;
21036;SDS011;10677;50.942;4.028;2022-07-19T13:05:52;8.82;;;2.63;;
21036;SDS011;10677;50.942;4.028;2022-07-19T13:08:17;6.80;;;2.17;;
21036;SDS011;10677;50.942;4.028;2022-07-19T13:10:43;5.63;;;2.42;;
21036;SDS011;10677;50.942;4.028;2022-07-19T13:13:09;6.07;;;2.25;;
21036;SDS011;10677;50.942;4.028;2022-07-19T13:15:35;11.13;;;2.70;;
21036;SDS011;10677;50.942;4.028;2022-07-19T13:18:00;6.18;;;2.53;;
21036;SDS011;10677;50.942;4.028;2022-07-19T13:20:27;11.18;;;2.65;;
21036;SDS011;10677;50.942;4.028;2022-07-19T13:22:53;7.57;;;2.50;;
21036;SDS011;10677;50.942;4.028;2022-07-19T13:25:19;5.18;;;2.55;;
21036;SDS011;10677;50.942;4.028;2022-07-19T13:27:45;7.05;;;2.40;;
21036;SDS011;10677;50.942;4.028;2022-07-19T13:30:10;5.55;;;2.45;;
21036;SDS011;10677;50.942;4.028;2022-07-19T13:32:36;4.05;;;2.15;;
21036;SDS011;10677;50.942;4.028;2022-07-19T13:35:02;6.55;;;3.17;;
21036;SDS011;10677;50.942;4.028;2022-07-19T13:37:28;8.13;;;2.60;;
21036;SDS011;10677;50.942;4.028;2022-07-19T13:39:54;4.45;;;2.25;;
21036;SDS011;10677;50.942;4.028;2022-07-19T13:42:20;5.75;;;2.40;;
21036;SDS011;10677;50.942;4.028;2022-07-19T13:44:46;4.93;;;2.08;;
21036;SDS011;10677;50.942;4.028;2022-07-19T13:47:11;4.63;;;2.60;;
21036;SDS011;10677;50.942;4.028;2022-07-19T13:49:37;5.38;;;2.60;;
21036;SDS011;10677;50.942;4.028;2022-07-19T13:52:03;7.68;;;2.83;;
21036;SDS011;10677;50.942;4.028;2022-07-19T13:54:28;5.68;;;2.45;;
21036;SDS011;10677;50.942;4.028;2022-07-19T13:56:54;4.90;;;2.58;;
21036;SDS011;10677;50.942;4.028;2022-07-19T13:59:20;8.82;;;2.63;;
21036;SDS011;10677;50.942;4.028;2022-07-19T14:01:46;8.82;;;2.60;;
21036;SDS011;10677;50.942;4.028;2022-07-19T14:04:11;5.60;;;2.70;;
21036;SDS011;10677;50.942;4.028;2022-07-19T14:06:38;8.13;;;2.42;;
21036;SDS011;10677;50.942;4.028;2022-07-19T14:09:03;5.97;;;2.50;;
21036;SDS011;10677;50.942;4.028;2022-07-19T14:11:29;7.40;;;2.20;;
21036;SDS011;10677;50.942;4.028;2022-07-19T14:13:54;5.78;;;2.20;;
21036;SDS011;10677;50.942;4.028;2022-07-19T14:16:20;4.75;;;2.03;;
21036;SDS011;10677;50.942;4.028;2022-07-19T14:18:46;6.85;;;2.03;;
21036;SDS011;10677;50.942;4.028;2022-07-19T14:21:11;6.28;;;2.03;;
21036;SDS011;10677;50.942;4.028;2022-07-19T14:23:37;5.72;;;2.00;;
21036;SDS011;10677;50.942;4.028;2022-07-19T14:26:04;6.10;;;2.42;;
21036;SDS011;10677;50.942;4.028;2022-07-19T14:28:30;4.03;;;2.03;;
21036;SDS011;10677;50.942;4.028;2022-07-19T14:30:55;7.35;;;1.58;;
21036;SDS011;10677;50.942;4.028;2022-07-19T14:33:21;5.13;;;1.70;;
21036;SDS011;10677;50.942;4.028;2022-07-19T14:35:47;7.18;;;1.85;;
21036;SDS011;10677;50.942;4.028;2022-07-19T14:38:13;6.32;;;1.70;;
21036;SDS011;10677;50.942;4.028;2022-07-19T14:40:38;9.90;;;1.58;;
21036;SDS011;10677;50.942;4.028;2022-07-19T14:43:04;7.30;;;1.83;;
21036;SDS011;10677;50.942;4.028;2022-07-19T14:45:29;6.22;;;1.90;;
21036;SDS011;10677;50.942;4.028;2022-07-19T14:47:55;4.05;;;1.77;;
21036;SDS011;10677;50.942;4.028;2022-07-19T14:50:21;5.35;;;1.65;;
21036;SDS011;10677;50.942;4.028;2022-07-19T14:52:47;4.90;;;1.77;;
21036;SDS011;10677;50.942;4.028;2022-07-19T14:55:13;5.32;;;1.50;;
21036;SDS011;10677;50.942;4.028;2022-07-19T14:57:38;6.82;;;1.45;;
21036;SDS011;10677;50.942;4.028;2022-07-19T15:00:06;5.68;;;1.70;;
21036;SDS011;10677;50.942;4.028;2022-07-19T15:02:32;5.63;;;1.60;;
21036;SDS011;10677;50.942;4.028;2022-07-19T15:04:58;5.93;;;1.60;;
21036;SDS011;10677;50.942;4.028;2022-07-19T15:07:24;5.63;;;1.50;;
21036;SDS011;10677;50.942;4.028;2022-07-19T15:09:50;3.88;;;1.50;;
21036;SDS011;10677;50.942;4.028;2022-07-19T15:12:16;3.42;;;1.45;;
21036;SDS011;10677;50.942;4.028;2022-07-19T15:14:41;7.00;;;1.50;;